createdAt,value
2018-12-17T00:00:43.425Z,43.77
2018-12-17T00:03:10.884Z,38.57
2018-12-17T00:05:41.739Z,54.20
2018-12-17T00:08:07.809Z,45.70
2018-12-17T00:10:35.277Z,44.97
2018-12-17T00:13:02.826Z,49.87
2018-12-17T00:15:30.310Z,34.53
2018-12-17T00:17:57.769Z,42.23
2018-12-17T00:20:25.237Z,40.60
2018-12-17T00:22:52.699Z,37.33
2018-12-17T00:25:20.160Z,45.10
2018-12-17T00:27:47.614Z,50.47
2018-12-17T00:30:15.105Z,49.63
2018-12-17T00:32:42.575Z,48.33
2018-12-17T00:35:10.029Z,61.47
2018-12-17T00:37:37.517Z,55.77
2018-12-17T00:40:06.618Z,48.23
2018-12-17T00:42:34.137Z,51.50
2018-12-17T00:45:01.601Z,46.70
2018-12-17T00:47:29.062Z,65.10
2018-12-17T00:49:56.527Z,60.53
2018-12-17T00:52:23.988Z,51.30
2018-12-17T00:54:51.444Z,55.57
2018-12-17T00:57:18.908Z,68.70
2018-12-17T00:59:46.372Z,54.33
2018-12-17T01:02:13.841Z,65.30
2018-12-17T01:04:41.304Z,63.83
2018-12-17T01:07:08.764Z,66.00
2018-12-17T01:09:36.220Z,67.57
2018-12-17T01:12:03.798Z,79.13
2018-12-17T01:14:31.240Z,63.30
2018-12-17T01:16:58.737Z,67.93
2018-12-17T01:19:26.247Z,60.80
2018-12-17T01:21:53.973Z,53.83
2018-12-17T01:24:21.432Z,61.67
2018-12-17T01:26:48.892Z,62.40
2018-12-17T01:29:16.368Z,66.60
2018-12-17T01:31:43.828Z,76.83
2018-12-17T01:34:11.292Z,58.40
2018-12-17T01:36:38.825Z,66.33
2018-12-17T01:39:06.572Z,42.87
2018-12-17T01:41:34.140Z,42.60
2018-12-17T01:44:01.714Z,46.53
2018-12-17T01:46:29.197Z,48.73
2018-12-17T01:48:56.672Z,53.73
2018-12-17T01:51:24.217Z,52.83
2018-12-17T01:53:51.680Z,59.37
2018-12-17T01:56:19.136Z,48.80
2018-12-17T01:58:46.600Z,70.53
2018-12-17T02:01:14.053Z,67.37
2018-12-17T02:03:41.533Z,50.00
2018-12-17T02:06:09.039Z,50.37
2018-12-17T02:08:36.537Z,50.27
2018-12-17T02:11:04.165Z,49.33
2018-12-17T02:13:31.640Z,54.07
2018-12-17T02:15:59.146Z,52.70
2018-12-17T02:18:26.592Z,66.50
2018-12-17T02:20:54.053Z,65.40
2018-12-17T02:23:21.513Z,53.77
2018-12-17T02:25:48.979Z,55.37
2018-12-17T02:28:16.437Z,65.13
2018-12-17T02:30:43.906Z,61.93
2018-12-17T02:33:11.501Z,66.90
2018-12-17T02:35:38.970Z,61.13
2018-12-17T02:38:06.432Z,53.77
2018-12-17T02:40:34.093Z,58.33
2018-12-17T02:43:01.559Z,60.07
2018-12-17T02:45:29.016Z,66.20
2018-12-17T02:47:56.506Z,49.50
2018-12-17T02:50:24.052Z,59.27
2018-12-17T02:52:51.594Z,61.43
2018-12-17T02:55:19.049Z,61.00
2018-12-17T02:57:46.516Z,61.33
2018-12-17T03:00:14.031Z,74.13
2018-12-17T03:02:41.524Z,51.80
2018-12-17T03:05:09.187Z,53.53
2018-12-17T03:07:36.649Z,69.10
2018-12-17T03:10:05.397Z,55.27
2018-12-17T03:12:32.869Z,54.67
2018-12-17T03:15:00.324Z,50.80
2018-12-17T03:17:27.791Z,55.43
2018-12-17T03:19:55.249Z,59.37
2018-12-17T03:22:22.713Z,50.87
2018-12-17T03:24:50.171Z,57.30
2018-12-17T03:27:17.628Z,55.20
2018-12-17T03:29:45.100Z,61.50
2018-12-17T03:32:12.579Z,50.70
2018-12-17T03:34:40.139Z,67.73
2018-12-17T03:37:07.606Z,58.47
2018-12-17T03:39:35.068Z,57.70
2018-12-17T03:42:02.578Z,63.07
2018-12-17T03:44:30.039Z,53.90
2018-12-17T03:46:57.558Z,59.80
2018-12-17T03:49:25.054Z,66.40
2018-12-17T03:51:52.593Z,59.03
2018-12-17T03:54:20.103Z,61.17
2018-12-17T03:56:47.581Z,62.07
2018-12-17T03:59:15.049Z,55.67
2018-12-17T04:01:42.498Z,49.20
2018-12-17T04:04:10.015Z,52.23
2018-12-17T04:06:37.486Z,62.83
2018-12-17T04:09:06.026Z,55.10
2018-12-17T04:11:33.487Z,56.43
2018-12-17T04:14:02.962Z,61.53
2018-12-17T04:16:30.430Z,53.47
2018-12-17T04:18:57.934Z,50.67
2018-12-17T04:21:25.435Z,46.97
2018-12-17T04:23:52.915Z,69.20
2018-12-17T04:26:20.479Z,82.27
2018-12-17T04:28:47.961Z,52.47
2018-12-17T04:31:15.473Z,63.90
2018-12-17T04:33:42.945Z,67.83
2018-12-17T04:36:10.428Z,89.53
2018-12-17T04:38:37.991Z,60.83
2018-12-17T04:41:05.454Z,72.67
2018-12-17T04:43:32.931Z,59.07
2018-12-17T04:46:00.394Z,65.73
2018-12-17T04:48:27.882Z,60.43
2018-12-17T04:50:55.346Z,68.33
2018-12-17T04:53:22.829Z,60.00
2018-12-17T04:55:50.326Z,69.67
2018-12-17T04:58:17.834Z,51.00
2018-12-17T05:00:45.390Z,76.23
2018-12-17T05:03:12.935Z,70.20
2018-12-17T05:05:40.397Z,64.17
2018-12-17T05:08:07.956Z,90.67
2018-12-17T05:10:35.448Z,69.27
2018-12-17T05:13:02.946Z,69.00
2018-12-17T05:15:30.457Z,78.63
2018-12-17T05:17:57.923Z,78.37
2018-12-17T05:20:25.422Z,65.67
2018-12-17T05:22:52.934Z,59.27
2018-12-17T05:25:20.400Z,67.33
2018-12-17T05:27:47.863Z,71.47
2018-12-17T05:30:15.673Z,66.47
2018-12-17T05:32:43.141Z,66.80
2018-12-17T05:35:10.683Z,76.93
2018-12-17T05:37:38.166Z,68.37
2018-12-17T05:40:06.703Z,65.70
2018-12-17T05:42:34.251Z,69.10
2018-12-17T05:45:01.724Z,71.10
2018-12-17T05:47:29.186Z,66.70
2018-12-17T05:49:56.685Z,50.80
2018-12-17T05:52:24.316Z,57.60
2018-12-17T05:54:51.774Z,60.53
2018-12-17T05:57:19.250Z,58.63
2018-12-17T05:59:46.722Z,57.30
2018-12-17T06:02:14.231Z,58.67
2018-12-17T06:04:41.698Z,63.97
2018-12-17T06:07:09.180Z,57.27
2018-12-17T06:09:36.974Z,68.20
2018-12-17T06:12:04.504Z,70.93
2018-12-17T06:14:31.963Z,61.13
2018-12-17T06:16:59.430Z,76.43
2018-12-17T06:19:26.898Z,73.77
2018-12-17T06:24:28.987Z,71.17
2018-12-17T06:26:56.462Z,74.63
2018-12-17T06:29:23.918Z,74.30
2018-12-17T06:31:51.413Z,68.93
2018-12-17T06:34:18.870Z,75.70
2018-12-17T06:36:46.329Z,60.47
2018-12-17T06:39:14.849Z,62.97
2018-12-17T06:41:42.456Z,67.97
2018-12-17T06:44:09.941Z,91.13
2018-12-17T06:46:37.425Z,84.07
2018-12-17T06:49:04.913Z,82.97
2018-12-17T06:51:32.511Z,98.80
2018-12-17T06:53:59.974Z,79.90
2018-12-17T06:56:27.433Z,80.83
2018-12-17T06:58:54.893Z,73.80
2018-12-17T07:01:22.404Z,75.93
2018-12-17T07:03:49.881Z,75.00
2018-12-17T07:06:17.406Z,92.63
2018-12-17T07:08:44.882Z,83.83
2018-12-17T07:11:12.354Z,76.80
2018-12-17T07:13:39.818Z,82.80
2018-12-17T07:16:07.312Z,85.53
2018-12-17T07:18:34.779Z,77.87
2018-12-17T07:21:02.241Z,88.37
2018-12-17T07:23:29.710Z,77.93
2018-12-17T07:25:57.215Z,88.23
2018-12-17T07:28:24.681Z,82.73
2018-12-17T07:30:52.214Z,76.03
2018-12-17T07:33:19.695Z,78.80
2018-12-17T07:35:47.157Z,74.30
2018-12-17T07:38:14.635Z,83.83
2018-12-17T07:40:42.109Z,77.13
2018-12-17T07:43:09.571Z,84.57
2018-12-17T07:45:37.043Z,80.73
2018-12-17T07:48:04.566Z,79.60
2018-12-17T07:50:32.124Z,97.30
2018-12-17T07:52:59.915Z,84.77
2018-12-17T07:55:27.386Z,62.70
2018-12-17T07:57:54.842Z,69.33
2018-12-17T08:00:22.353Z,58.67
2018-12-17T08:02:49.803Z,73.20
2018-12-17T08:05:17.312Z,60.30
2018-12-17T08:07:44.797Z,64.23
2018-12-17T08:10:12.257Z,71.70
2018-12-17T08:12:39.718Z,63.57
2018-12-17T08:15:07.268Z,55.87
2018-12-17T08:17:34.726Z,63.70
2018-12-17T08:20:02.279Z,65.37
2018-12-17T08:22:29.881Z,72.57
2018-12-17T08:24:57.353Z,73.40
2018-12-17T08:27:24.827Z,102.90
2018-12-17T08:29:52.302Z,69.20
2018-12-17T08:32:19.875Z,83.77
2018-12-17T08:34:47.339Z,70.60
2018-12-17T08:37:14.811Z,71.10
2018-12-17T08:39:42.305Z,73.07
2018-12-17T08:42:09.766Z,90.10
2018-12-17T08:44:37.274Z,102.60
2018-12-17T08:47:04.779Z,92.33
2018-12-17T08:49:32.333Z,92.63
2018-12-17T08:51:59.802Z,86.97
2018-12-17T08:54:27.281Z,59.73
2018-12-17T08:56:54.735Z,75.53
2018-12-17T08:59:22.219Z,63.00
2018-12-17T09:01:49.722Z,72.13
2018-12-17T09:04:17.198Z,82.80
2018-12-17T09:06:44.711Z,70.87
2018-12-17T09:09:12.205Z,67.57
2018-12-17T09:11:39.670Z,80.70
2018-12-17T09:14:07.173Z,64.60
2018-12-17T09:16:34.643Z,74.83
2018-12-17T09:19:02.096Z,76.37
2018-12-17T09:21:29.570Z,61.87
2018-12-17T09:23:57.027Z,72.37
2018-12-17T09:26:24.508Z,71.47
2018-12-17T09:28:51.968Z,66.33
2018-12-17T09:31:19.466Z,67.57
2018-12-17T09:33:46.925Z,60.63
2018-12-17T09:36:14.437Z,75.87
2018-12-17T09:38:41.890Z,64.63
2018-12-17T09:41:09.408Z,67.53
2018-12-17T09:43:36.873Z,62.80
2018-12-17T09:46:04.454Z,58.27
2018-12-17T09:48:31.954Z,60.33
2018-12-17T09:50:59.447Z,56.70
2018-12-17T09:53:26.910Z,61.50
2018-12-17T09:55:54.370Z,72.10
2018-12-17T09:58:21.866Z,69.07
2018-12-17T10:00:49.374Z,69.03
2018-12-17T10:03:16.839Z,66.90
2018-12-17T10:05:44.335Z,96.10
2018-12-17T10:08:11.823Z,69.57
2018-12-17T10:10:39.368Z,74.23
2018-12-17T10:13:06.930Z,82.97
2018-12-17T10:15:34.476Z,74.40
2018-12-17T10:18:01.938Z,83.37
2018-12-17T10:20:29.402Z,78.10
2018-12-17T10:22:56.875Z,76.93
2018-12-17T10:25:24.370Z,67.70
2018-12-17T10:27:51.843Z,62.07
2018-12-17T10:30:19.297Z,71.73
2018-12-17T10:32:46.776Z,67.67
2018-12-17T10:35:14.307Z,69.67
2018-12-17T10:37:41.764Z,52.80
2018-12-17T10:40:09.290Z,64.53
2018-12-17T10:42:36.796Z,63.10
2018-12-17T10:45:05.330Z,53.43
2018-12-17T10:47:32.790Z,54.90
2018-12-17T10:50:00.288Z,55.60
2018-12-17T10:52:27.753Z,54.33
2018-12-17T10:54:55.215Z,52.73
2018-12-17T10:57:22.677Z,45.00
2018-12-17T10:59:50.175Z,48.30
2018-12-17T11:02:19.626Z,48.43
2018-12-17T11:04:49.134Z,43.50
2018-12-17T11:07:16.609Z,39.90
2018-12-17T11:09:44.070Z,40.90
2018-12-17T11:12:11.542Z,37.00
2018-12-17T11:14:39.003Z,34.30
2018-12-17T11:20:19.179Z,33.37
2018-12-17T11:22:46.655Z,30.97
2018-12-17T11:25:14.116Z,24.93
2018-12-17T11:27:41.594Z,32.23
2018-12-17T11:30:09.533Z,29.80
2018-12-17T11:32:38.987Z,27.50
2018-12-17T11:35:06.454Z,25.30
2018-12-17T11:37:42.419Z,34.90
2018-12-17T11:40:10.000Z,37.27
2018-12-17T11:42:37.460Z,24.30
2018-12-17T11:45:05.006Z,28.43
2018-12-17T11:47:32.462Z,35.13
2018-12-17T11:49:59.983Z,25.30
2018-12-17T11:52:27.496Z,31.70
2018-12-17T11:54:55.032Z,26.00
2018-12-17T12:00:32.343Z,28.73
2018-12-17T12:02:59.798Z,30.40
2018-12-17T12:05:27.288Z,24.77
2018-12-17T12:07:54.762Z,26.67
2018-12-17T12:10:22.212Z,35.63
2018-12-17T12:12:49.688Z,32.37
2018-12-17T12:15:17.156Z,31.90
2018-12-17T12:17:44.622Z,30.93
2018-12-17T12:20:12.207Z,29.80
2018-12-17T12:22:39.686Z,29.80
2018-12-17T12:25:07.187Z,38.97
2018-12-17T12:27:34.734Z,28.47
2018-12-17T12:30:03.626Z,33.50
2018-12-17T12:32:31.214Z,31.40
2018-12-17T12:34:58.718Z,27.87
2018-12-17T12:37:26.191Z,37.10
2018-12-17T12:39:53.651Z,37.47
2018-12-17T12:42:21.127Z,22.47
2018-12-17T12:44:48.587Z,25.50
2018-12-17T12:47:16.039Z,23.00
2018-12-17T12:49:43.520Z,25.00
2018-12-17T12:52:10.983Z,28.63
2018-12-17T12:54:38.447Z,27.90
2018-12-17T12:57:05.902Z,22.87
2018-12-17T12:59:33.428Z,25.30
2018-12-17T13:02:00.985Z,25.30
2018-12-17T13:04:28.455Z,28.27
2018-12-17T13:06:55.909Z,24.43
2018-12-17T13:09:23.375Z,23.70
2018-12-17T13:11:50.842Z,23.93
2018-12-17T13:14:18.311Z,21.70
2018-12-17T13:16:45.807Z,23.37
2018-12-17T13:19:13.279Z,25.83
2018-12-17T13:21:40.730Z,29.30
2018-12-17T13:24:08.215Z,24.47
2018-12-17T13:26:35.671Z,30.63
2018-12-17T13:29:03.324Z,24.77
2018-12-17T13:31:30.798Z,23.20
2018-12-17T13:33:58.264Z,21.73
2018-12-17T13:36:25.719Z,21.97
2018-12-17T13:38:53.196Z,21.80
2018-12-17T13:41:20.673Z,22.77
2018-12-17T13:43:48.157Z,19.93
2018-12-17T13:46:15.617Z,22.83
2018-12-17T13:48:43.121Z,22.43
2018-12-17T13:54:22.870Z,22.03
2018-12-17T13:56:50.329Z,21.73
2018-12-17T13:59:17.802Z,24.40
2018-12-17T14:01:51.185Z,20.07
2018-12-17T14:04:14.747Z,19.50
2018-12-17T14:06:42.216Z,15.90
2018-12-17T14:09:09.734Z,16.70
2018-12-17T14:11:37.211Z,21.70
2018-12-17T14:14:04.891Z,25.10
2018-12-17T14:16:38.062Z,20.83
2018-12-17T14:19:11.419Z,15.67
2018-12-17T14:21:59.706Z,18.20
2018-12-17T14:24:27.215Z,18.33
2018-12-17T14:26:54.710Z,15.53
2018-12-17T14:29:22.179Z,17.87
2018-12-17T14:31:49.646Z,14.00
2018-12-17T14:34:17.102Z,11.83
2018-12-17T14:36:44.606Z,21.13
2018-12-17T14:39:12.951Z,14.13
2018-12-17T14:41:40.410Z,14.23
2018-12-17T14:44:13.618Z,10.73
2018-12-17T14:46:46.826Z,15.30
2018-12-17T14:49:14.286Z,34.50
2018-12-17T14:51:41.754Z,52.87
2018-12-17T14:54:09.215Z,19.10
2018-12-17T14:56:36.679Z,11.17
2018-12-17T14:59:04.175Z,8.80
2018-12-17T15:01:35.771Z,13.87
2018-12-17T15:04:01.091Z,10.60
2018-12-17T15:06:28.565Z,14.33
2018-12-17T15:08:56.014Z,10.57
2018-12-17T15:11:23.479Z,10.57
2018-12-17T15:13:50.979Z,10.90
2018-12-17T15:16:18.443Z,11.50
2018-12-17T15:18:45.898Z,10.20
2018-12-17T15:21:13.380Z,10.33
2018-12-17T15:23:40.838Z,9.60
2018-12-17T15:26:08.302Z,8.77
2018-12-17T15:28:35.886Z,12.30
2018-12-17T15:31:03.477Z,9.30
2018-12-17T15:33:31.006Z,9.37
2018-12-17T15:35:58.475Z,8.57
2018-12-17T15:38:25.923Z,9.83
2018-12-17T15:40:53.414Z,9.73
2018-12-17T15:43:20.875Z,8.90
2018-12-17T15:45:48.329Z,8.50
2018-12-17T15:48:15.782Z,9.50
2018-12-17T15:50:43.262Z,9.50
2018-12-17T15:53:10.711Z,10.87
2018-12-17T15:55:38.199Z,10.47
2018-12-17T15:58:05.661Z,10.67
2018-12-17T16:00:33.102Z,16.63
2018-12-17T16:03:00.572Z,13.50
2018-12-17T16:05:28.062Z,12.33
2018-12-17T16:07:55.530Z,10.27
2018-12-17T16:10:23.152Z,15.60
2018-12-17T16:12:50.634Z,14.97
2018-12-17T16:15:18.092Z,19.83
2018-12-17T16:17:45.607Z,16.73
2018-12-17T16:20:13.141Z,19.80
2018-12-17T16:22:40.602Z,17.63
2018-12-17T16:25:08.148Z,22.43
2018-12-17T16:27:35.654Z,15.90
2018-12-17T16:30:04.002Z,19.37
2018-12-17T16:32:31.486Z,20.43
2018-12-17T16:34:58.979Z,20.53
2018-12-17T16:37:26.446Z,20.70
2018-12-17T16:39:53.906Z,16.10
2018-12-17T16:42:21.370Z,26.53
2018-12-17T16:44:48.831Z,22.00
2018-12-17T16:47:16.340Z,23.30
2018-12-17T16:49:43.863Z,19.50
2018-12-17T16:52:11.323Z,19.63
2018-12-17T16:54:40.120Z,29.70
2018-12-17T16:57:07.752Z,18.17
2018-12-17T16:59:35.207Z,24.03
2018-12-17T17:02:04.693Z,18.47
2018-12-17T17:04:32.131Z,20.40
2018-12-17T17:06:59.589Z,18.40
2018-12-17T17:09:27.047Z,22.37
2018-12-17T17:11:54.514Z,23.87
2018-12-17T17:14:21.984Z,19.33
2018-12-17T17:16:49.483Z,19.80
2018-12-17T17:19:16.969Z,23.50
2018-12-17T17:21:44.676Z,24.60
2018-12-17T17:24:12.150Z,25.40
2018-12-17T17:26:39.610Z,27.57
2018-12-17T17:29:08.051Z,24.20
2018-12-17T17:31:35.526Z,44.80
2018-12-17T17:34:02.987Z,31.20
2018-12-17T17:36:30.451Z,26.43
2018-12-17T17:38:58.059Z,26.67
2018-12-17T17:41:25.519Z,23.40
2018-12-17T17:43:53.061Z,23.63
2018-12-17T17:46:20.527Z,23.63
2018-12-17T17:48:48.025Z,21.87
2018-12-17T17:51:15.510Z,23.30
2018-12-17T17:53:42.966Z,23.93
2018-12-17T17:56:10.415Z,24.33
2018-12-17T17:58:37.922Z,23.37
2018-12-17T18:01:05.511Z,24.47
2018-12-17T18:03:33.018Z,22.10
2018-12-17T18:06:00.559Z,22.00
2018-12-17T18:08:28.085Z,24.37
2018-12-17T18:10:55.542Z,36.03
2018-12-17T18:13:23.015Z,30.40
2018-12-17T18:15:50.471Z,23.10
2018-12-17T18:18:17.940Z,28.30
2018-12-17T18:20:45.394Z,33.40
2018-12-17T18:23:12.865Z,27.23
2018-12-17T18:25:40.450Z,21.33
2018-12-17T18:28:08.009Z,26.17
2018-12-17T18:30:35.457Z,20.17
2018-12-17T18:33:02.970Z,23.47
2018-12-17T18:35:30.440Z,20.20
2018-12-17T18:37:57.905Z,20.60
2018-12-17T18:40:25.398Z,25.00
2018-12-17T18:42:52.874Z,24.93
2018-12-17T18:45:20.383Z,24.47
2018-12-17T18:47:47.924Z,25.63
2018-12-17T18:50:15.382Z,30.30
2018-12-17T18:52:42.842Z,29.97
2018-12-17T18:55:10.319Z,25.97
2018-12-17T18:57:37.776Z,23.97
2018-12-17T19:00:08.091Z,36.30
2018-12-17T19:02:35.544Z,33.47
2018-12-17T19:05:03.902Z,37.73
2018-12-17T19:07:31.429Z,54.80
2018-12-17T19:09:58.895Z,49.20
2018-12-17T19:12:26.406Z,35.90
2018-12-17T19:14:53.876Z,46.00
2018-12-17T19:17:21.378Z,48.40
2018-12-17T19:19:48.851Z,54.07
2018-12-17T19:22:16.334Z,37.17
2018-12-17T19:24:43.816Z,36.70
2018-12-17T19:27:11.279Z,33.90
2018-12-17T19:29:38.872Z,26.77
2018-12-17T19:32:06.384Z,25.10
2018-12-17T19:34:33.868Z,36.63
2018-12-17T19:37:01.331Z,44.27
2018-12-17T19:39:28.819Z,35.20
2018-12-17T19:41:56.280Z,30.53
2018-12-17T19:44:23.796Z,39.80
2018-12-17T19:46:51.310Z,33.17
2018-12-17T19:49:18.917Z,31.80
2018-12-17T19:51:46.474Z,28.07
2018-12-17T19:54:13.993Z,27.30
2018-12-17T19:56:41.459Z,28.53
2018-12-17T19:59:08.960Z,29.70
2018-12-17T20:01:36.420Z,36.40
2018-12-17T20:04:03.951Z,45.83
2018-12-17T20:06:31.423Z,39.03
2018-12-17T20:08:58.881Z,36.90
2018-12-17T20:11:26.481Z,34.97
2018-12-17T20:13:53.935Z,33.30
2018-12-17T20:16:21.445Z,28.13
2018-12-17T20:18:48.907Z,26.37
2018-12-17T20:21:16.372Z,50.07
2018-12-17T20:23:43.837Z,45.10
2018-12-17T20:26:11.308Z,45.07
2018-12-17T20:28:38.768Z,49.50
2018-12-17T20:31:06.290Z,43.93
2018-12-17T20:33:33.742Z,39.33
2018-12-17T20:36:01.202Z,48.47
2018-12-17T20:38:28.656Z,61.23
2018-12-17T20:40:56.168Z,56.30
2018-12-17T20:43:23.633Z,41.10
2018-12-17T20:45:51.100Z,41.97
2018-12-17T20:48:18.567Z,35.80
2018-12-17T20:50:46.054Z,27.40
2018-12-17T20:53:13.511Z,28.83
2018-12-17T20:55:40.971Z,30.60
2018-12-17T20:58:08.438Z,26.97
2018-12-17T21:00:35.918Z,28.77
2018-12-17T21:03:03.430Z,28.67
2018-12-17T21:05:30.931Z,28.00
2018-12-17T21:07:58.461Z,25.20
2018-12-17T21:10:25.920Z,27.77
2018-12-17T21:12:53.386Z,27.80
2018-12-17T21:15:20.848Z,29.80
2018-12-17T21:17:48.315Z,27.63
2018-12-17T21:20:15.786Z,29.03
2018-12-17T21:22:43.254Z,30.73
2018-12-17T21:25:10.729Z,28.07
2018-12-17T21:27:38.217Z,40.60
2018-12-17T21:30:06.867Z,28.83
2018-12-17T21:32:34.334Z,29.97
2018-12-17T21:35:01.807Z,55.63
2018-12-17T21:37:29.280Z,51.60
2018-12-17T21:39:56.747Z,38.27
2018-12-17T21:42:24.212Z,34.00
2018-12-17T21:44:51.691Z,39.50
2018-12-17T21:47:19.151Z,44.43
2018-12-17T21:49:46.610Z,41.10
2018-12-17T21:52:14.079Z,42.07
2018-12-17T21:54:41.550Z,43.13
2018-12-17T21:57:09.012Z,40.43
2018-12-17T21:59:36.474Z,47.03
2018-12-17T22:02:04.454Z,40.50
2018-12-17T22:04:31.953Z,51.50
2018-12-17T22:06:59.423Z,47.37
2018-12-17T22:09:26.903Z,45.10
2018-12-17T22:11:54.359Z,49.63
2018-12-17T22:14:21.818Z,45.53
2018-12-17T22:16:49.311Z,45.33
2018-12-17T22:19:16.775Z,36.63
2018-12-17T22:21:44.258Z,36.63
2018-12-17T22:24:11.727Z,34.63
2018-12-17T22:26:39.187Z,31.73
2018-12-17T22:29:06.663Z,28.33
2018-12-17T22:31:34.127Z,29.67
2018-12-17T22:34:01.609Z,27.13
2018-12-17T22:36:29.074Z,28.40
2018-12-17T22:38:56.630Z,25.30
2018-12-17T22:41:24.086Z,30.40
2018-12-17T22:43:51.562Z,29.60
2018-12-17T22:46:19.022Z,25.37
2018-12-17T22:48:46.495Z,27.43
2018-12-17T22:51:13.965Z,20.63
2018-12-17T22:53:41.428Z,29.53
2018-12-17T22:56:08.886Z,25.07
2018-12-17T22:58:42.138Z,23.90
2018-12-17T23:01:05.903Z,26.73
2018-12-17T23:03:33.374Z,24.10
2018-12-17T23:06:00.844Z,32.43
2018-12-17T23:08:28.359Z,22.20
2018-12-17T23:11:07.774Z,21.13
2018-12-17T23:13:47.202Z,23.73
2018-12-17T23:16:26.709Z,24.23
2018-12-17T23:18:53.775Z,28.57
2018-12-17T23:21:21.289Z,28.40
2018-12-17T23:23:48.806Z,28.27
2018-12-17T23:26:16.266Z,25.17
2018-12-17T23:28:43.770Z,22.20
2018-12-17T23:31:11.235Z,28.73
2018-12-17T23:33:38.744Z,25.47
2018-12-17T23:36:07.106Z,28.47
2018-12-17T23:38:34.610Z,28.53
2018-12-17T23:41:02.078Z,27.70
2018-12-17T23:43:29.573Z,28.17
2018-12-17T23:45:57.044Z,23.83
2018-12-17T23:48:24.565Z,28.23
2018-12-17T23:50:52.043Z,29.27
2018-12-17T23:53:19.513Z,37.10
2018-12-17T23:55:46.979Z,27.17
2018-12-17T23:58:14.460Z,31.30
